This is the latest recevied weather packets stored in our database for station/object KA7RLM. If no packets are shown the sender has not sent any weather packets the latest 10 day(s).
| Time | Temp. | Humidity | Pressure | Rain* | Wind** | Luminosity | Snow |
|---|---|---|---|---|---|---|---|
| 1777294822 | 7.22° C | 95% | 1015.6 hPa | 0 mm | - | - | - |
| 1777294220 | 6.67° C | 95% | 1015.5 hPa | 0 mm | - | - | - |
| 1777293623 | 6.67° C | 95% | 1015.4 hPa | 0 mm | - | - | - |
| 1777291257 | 7.78° C | 93% | 1015.1 hPa | 0 mm | - | - | - |
| 1777288227 | 7.22° C | 95% | 1014.7 hPa | 0 mm | - | - | - |
| 1777285822 | 7.22° C | 95% | 1014.4 hPa | 0 mm | - | - | - |
| 1777283419 | 7.78° C | 94% | 1014.4 hPa | 0 mm | - | - | - |
| 1777281032 | 8.33° C | 91% | 1014.4 hPa | 0 mm | - | - | - |
| 1777278021 | 8.89° C | 89% | 1014.2 hPa | 0 mm | - | - | - |
| 1777277443 | 8.89° C | 89% | 1014.2 hPa | 0 mm | - | - | - |
| 1777275628 | 9.44° C | 89% | 1014 hPa | 0 mm | - | - | - |
| 1777273229 | 10° C | 85% | 1013.4 hPa | 0 mm | - | - | - |
| 1777270242 | 11.11° C | 81% | 1012.7 hPa | 0 mm | - | - | - |
| 1777269037 | 11.67° C | 80% | 1012.7 hPa | 0 mm | - | - | - |
| 1777264226 | 13.89° C | 66% | 1011.7 hPa | 0 mm | - | - | - |
| 1777263623 | 14.44° C | 64% | 1011.4 hPa | 0 mm | - | - | - |
| 1777259424 | 16.67° C | 45% | 1010.4 hPa | 0 mm | - | - | - |
| 1777257024 | 17.22° C | 41% | 1010.3 hPa | 0 mm | - | - | - |
| 1777255819 | 17.22° C | 41% | 1010.1 hPa | 0 mm | - | - | - |
| 1777255217 | 17.78° C | 41% | 1010.1 hPa | 0 mm | - | - | - |
| 1777253426 | 17.22° C | 43% | 1010 hPa | 0 mm | - | - | - |
| 1777251016 | 17.78° C | 42% | 1009.8 hPa | 0 mm | - | - | - |
| 1777247418 | 20.56° C | 25% | 1009.1 hPa | 0 mm | - | - | - |
| 1777246226 | 22.22° C | 25% | 1009.1 hPa | 0 mm | - | - | - |
| 1777245051 | 22.22° C | 26% | 1009.2 hPa | 0 mm | - | - | - |
* Rain latest hour (hover to see other rain measurements)
** Current wind speed in m/s (hover to see current wind gust speed)